Aragarcas Airport


Codes: SJVO/ARS
Name: Aragarcas Airport
City: Aragarcas
Country: Brazil
Elevation: 1061 ft.

Photos at Aragarcas Airport


   Photos courtesy of SpottingLog. You can add your own sightings and photos by signing up for a free trial today.



No photos found.

Weather at Aragarcas Airport


Time (UTC)DescriptionTempratureWindCloud coverageVisibilityPressureHumidity
21-Jun-2024 12:00Clear Sky22°C4 mph, E9%10000m1016hPa43%
21-Jun-2024 15:00Scattered Clouds25°C11 mph, NE25%10000m1015hPa38%
21-Jun-2024 18:00Scattered Clouds28°C9 mph, N26%10000m1013hPa31%
21-Jun-2024 21:00Clear Sky26°C4 mph, N7%10000m1011hPa36%
22-Jun-2024 00:00Clear Sky21°C2 mph, NW6%10000m1013hPa45%
22-Jun-2024 03:00Clear Sky19°C2 mph, S9%10000m1013hPa50%
22-Jun-2024 06:00Clear Sky17°C2 mph, NE10%10000m1013hPa56%
22-Jun-2024 09:00Few Clouds16°C4 mph, E16%10000m1014hPa60%
22-Jun-2024 12:00Few Clouds23°C4 mph, E17%10000m1016hPa40%
22-Jun-2024 15:00Broken Clouds31°C7 mph, NE70%10000m1014hPa25%
22-Jun-2024 18:00Broken Clouds32°C11 mph, NE51%10000m1010hPa21%
22-Jun-2024 21:00Few Clouds26°C4 mph, NE19%10000m1011hPa32%
23-Jun-2024 00:00Scattered Clouds22°C4 mph, NE39%10000m1012hPa39%
23-Jun-2024 03:00Broken Clouds20°C2 mph, NE56%10000m1012hPa45%
23-Jun-2024 06:00Scattered Clouds18°C2 mph, E41%10000m1012hPa52%
23-Jun-2024 09:00Clear Sky16°C2 mph, NE7%10000m1014hPa58%
23-Jun-2024 12:00Clear Sky23°C2 mph, NE4%10000m1016hPa38%
23-Jun-2024 15:00Clear Sky31°C7 mph, NE0%10000m1014hPa23%
23-Jun-2024 18:00Clear Sky33°C7 mph, N0%10000m1010hPa20%
23-Jun-2024 21:00Clear Sky27°C7 mph, NE0%10000m1010hPa28%
24-Jun-2024 00:00Clear Sky22°C2 mph, NE0%10000m1012hPa35%
24-Jun-2024 03:00Clear Sky21°C2 mph, E0%10000m1013hPa38%
24-Jun-2024 06:00Few Clouds19°C2 mph, SW14%10000m1012hPa44%
24-Jun-2024 09:00Broken Clouds17°C0 mph, NE80%10000m1013hPa47%
24-Jun-2024 12:00Scattered Clouds24°C2 mph, NE45%10000m1016hPa34%
24-Jun-2024 15:00Clear Sky32°C4 mph, NE4%10000m1015hPa21%
24-Jun-2024 18:00Clear Sky34°C4 mph, N2%10000m1011hPa18%
24-Jun-2024 21:00Clear Sky28°C4 mph, NE0%10000m1011hPa27%
25-Jun-2024 00:00Clear Sky22°C2 mph, N1%10000m1013hPa36%
25-Jun-2024 03:00Clear Sky20°C0 mph, SE1%10000m1014hPa41%
25-Jun-2024 06:00Clear Sky19°C4 mph, SW4%10000m1013hPa43%
25-Jun-2024 09:00Clear Sky18°C2 mph, SW8%10000m1014hPa47%
25-Jun-2024 12:00Clear Sky25°C2 mph, SW5%10000m1016hPa32%
25-Jun-2024 15:00Clear Sky34°C2 mph, NE0%10000m1014hPa18%
25-Jun-2024 18:00Clear Sky36°C4 mph, NE0%10000m1011hPa16%
25-Jun-2024 21:00Clear Sky29°C4 mph, NE1%10000m1011hPa24%
26-Jun-2024 00:00Clear Sky23°C2 mph, SW1%10000m1013hPa34%
26-Jun-2024 03:00Clear Sky21°C2 mph, S0%10000m1013hPa37%
26-Jun-2024 06:00Clear Sky20°C4 mph, SW0%10000m1013hPa39%
26-Jun-2024 09:00Clear Sky17°C2 mph, SE0%10000m1013hPa46%